Jennifer — WDF6480 — position and weather

sailwx.info

Track history (hours):
 
Tides and Currents Weather Stations Pressure Air Temp Water Temp Dewpoint Dewpoint Depression Visibility Wind Speed Wind Dir Waves Ship Positions

Jennifer

Owner: John W. Stone Oil Distributor, L.L.C., Gretna, LA. More information available from US FCC via Universal Licensing System and Coast Guard Vessel Documentation Center.

Last reported at 2016-Aug-09 13:31 UTC. Time now 2016-Aug-30 09:10 UTC.
Position N 29°33' W 090°27'.
Warning: this ship's position is 20 days out of date.

Length 17 m; draft 3 m.

Type: Tug. MMSI: 367474690.

Date/timePositionNaut miles runAvg speedWind from/ knotsBaromVisibWave heightAir tempDewpointWater temp
2016-Aug-09 13:31N 29°33' W 090°27'6 6.6
2016-Aug-09 12:34N 29°34' W 090°34'6 5.8
2016-Aug-09 11:33N 29°36' W 090°41'4 3.8
2016-Aug-09 10:33N 29°34' W 090°44'6 5.9
2016-Aug-09 09:33N 29°32' W 090°51'7 6.7
2016-Aug-09 08:33N 29°35' W 090°58'50 4.8
2016-Aug-08 22:09N 29°51' W 091°52'4 6.9
2016-Aug-08 21:33N 29°51' W 091°57'6 6.2
2016-Aug-08 20:34N 29°49' W 092°03'4 4.2
2016-Aug-08 19:33N 29°48' W 092°08'1 1.2
2016-Aug-08 18:33N 29°49' W 092°08'0 0.0
2016-Aug-08 17:33N 29°49' W 092°08'0 0.0
2016-Aug-08 16:33N 29°49' W 092°08'0 0.0
2016-Aug-08 15:33N 29°49' W 092°08'0 0.0
2016-Aug-08 14:33N 29°49' W 092°08'0 0.0
2016-Aug-08 13:33N 29°49' W 092°08'0 0.0
2016-Aug-08 12:33N 29°49' W 092°08'0 0.0
2016-Aug-08 11:34N 29°49' W 092°08'1 0.7
2016-Aug-08 10:33N 29°48' W 092°08'3 3.0
2016-Aug-08 09:33N 29°47' W 092°11'0 0.0
2016-Aug-08 08:33N 29°47' W 092°11'0 0.0
2016-Aug-08 07:33N 29°47' W 092°11'0 0.0
2016-Aug-08 06:33N 29°47' W 092°11'0 0.0
2016-Aug-08 05:34N 29°47' W 092°11'0 0.0
2016-Aug-08 04:33N 29°47' W 092°11'0 0.0
2016-Aug-08 03:34N 29°47' W 092°11'0 0.0
2016-Aug-08 02:33N 29°47' W 092°11'0 0.0
2016-Aug-08 01:34N 29°47' W 092°11'0 0.0
2016-Aug-08 00:34N 29°47' W 092°11'0 0.0
2016-Aug-07 23:34N 29°47' W 092°11'0 0.0
2016-Aug-07 22:33N 29°47' W 092°11'0 0.0
2016-Aug-07 21:34N 29°47' W 092°11'0 0.0
2016-Aug-07 20:33N 29°47' W 092°11'0 0.0
2016-Aug-07 19:34N 29°47' W 092°11'0 0.0
2016-Aug-07 18:33N 29°47' W 092°11'0 0.0
2016-Aug-07 17:33N 29°47' W 092°11'0 0.0
2016-Aug-07 16:33N 29°47' W 092°11'0 0.0
2016-Aug-07 15:33N 29°47' W 092°11'0 0.0
2016-Aug-07 14:33N 29°47' W 092°11'0 0.0
2016-Aug-07 13:33N 29°47' W 092°11'0 0.0
2016-Aug-07 12:33N 29°47' W 092°11'0 0.0
2016-Aug-07 11:33N 29°47' W 092°11'0 0.0
2016-Aug-07 10:33N 29°47' W 092°11'0 0.0
2016-Aug-07 09:34N 29°47' W 092°11'0 0.0
2016-Aug-07 08:33N 29°47' W 092°11'0 0.0
2016-Aug-07 07:33N 29°47' W 092°11'0 0.0
2016-Aug-07 05:34N 29°47' W 092°11'0 0.0
2016-Aug-07 04:33N 29°47' W 092°11'0 0.0
2016-Aug-07 03:31N 29°47' W 092°11'0 0.0
2016-Aug-07 02:34N 29°47' W 092°11'0 0.0
2016-Aug-07 01:33N 29°47' W 092°11'0 0.0
2016-Aug-07 00:33N 29°47' W 092°11'0 0.0
2016-Aug-06 23:33N 29°47' W 092°11'0 0.0
2016-Aug-06 22:33N 29°47' W 092°11'0 0.0
2016-Aug-06 21:33N 29°47' W 092°11'0 0.0
2016-Aug-06 20:33N 29°47' W 092°11'0 0.0
2016-Aug-06 19:33N 29°47' W 092°11'0 0.0
2016-Aug-06 18:33N 29°47' W 092°11'0 0.0
2016-Aug-06 17:33N 29°47' W 092°11'0 0.0
2016-Aug-06 16:33N 29°47' W 092°11'0 0.0
2016-Aug-06 15:33N 29°47' W 092°11'0 0.0
2016-Aug-06 14:33N 29°47' W 092°11'0 0.0
2016-Aug-06 13:33N 29°47' W 092°11'0 0.0
2016-Aug-06 12:33N 29°47' W 092°11'0 0.0
2016-Aug-06 11:34N 29°47' W 092°11'3 2.5
2016-Aug-06 10:33N 29°47' W 092°08'5 5.1
2016-Aug-06 09:33N 29°49' W 092°03'5 5.1
2016-Aug-06 08:33N 29°50' W 091°57'5 4.7
2016-Aug-06 07:33N 29°51' W 091°52'54 4.9
2016-Aug-05 20:29N 29°32' W 090°53'5 5.9
2016-Aug-05 19:33N 29°32' W 090°47'5 4.8
2016-Aug-05 18:33N 29°36' W 090°43'4 3.5
2016-Aug-05 17:33N 29°35' W 090°39'5 5.1
2016-Aug-05 16:33N 29°34' W 090°33'39 1.7
2016-Aug-04 18:08N 29°53' W 089°54'4 6.8
2016-Aug-04 17:34N 29°55' W 089°58'5 4.7
2016-Aug-04 16:34N 29°56' W 090°04'0 0.0
2016-Aug-04 15:33N 29°56' W 090°04'0 0.0
2016-Aug-04 14:34N 29°56' W 090°04'0 0.0
2016-Aug-04 13:33N 29°56' W 090°04'0 0.0
2016-Aug-04 12:33N 29°56' W 090°04'2 1.9
2016-Aug-04 11:34N 29°55' W 090°06'0 0.0
2016-Aug-04 10:33N 29°55' W 090°06'0 0.0
2016-Aug-04 09:33N 29°55' W 090°06'0 0.0
2016-Aug-04 08:33N 29°55' W 090°06'0 0.0
2016-Aug-04 07:33N 29°55' W 090°06'0 0.0
2016-Aug-04 06:33N 29°55' W 090°06'0 0.0
2016-Aug-04 04:33N 29°55' W 090°06'0 0.0
2016-Aug-04 03:33N 29°55' W 090°06'2 2.0
2016-Aug-04 02:34N 29°56' W 090°04'0 0.0
2016-Aug-04 01:33N 29°56' W 090°04'0 0.0
2016-Aug-04 00:34N 29°56' W 090°04'0 0.0
2016-Aug-03 23:33N 29°56' W 090°04'0 0.0
2016-Aug-03 22:33N 29°56' W 090°04'0 0.0
2016-Aug-03 21:33N 29°56' W 090°04'0 0.0
2016-Aug-03 20:33N 29°56' W 090°04'0 0.1
2016-Aug-03 19:33N 29°55' W 090°04'0 0.0
2016-Aug-03 18:33N 29°55' W 090°04'0 0.0
2016-Aug-03 17:33N 29°55' W 090°04'0 0.0
2016-Aug-03 16:34N 29°55' W 090°04'0 0.0
2016-Aug-03 15:33N 29°55' W 090°04'0 0.0
2016-Aug-03 14:33N 29°55' W 090°04'0 0.0
2016-Aug-03 13:34N 29°55' W 090°04'0 0.0
2016-Aug-03 12:34N 29°55' W 090°04'3 2.6
2016-Aug-03 11:34N 29°53' W 090°04'7 6.0
2016-Aug-03 10:24N 29°46' W 090°05'23 5.9
2016-Aug-03 06:33N 29°33' W 090°27'13 6.6
2016-Aug-03 04:33N 29°37' W 090°41'6 5.9
2016-Aug-03 03:34N 29°31' W 090°43'8 7.4
2016-Aug-03 02:32N 29°23' W 090°44'1 0.0
2016-Jul-31 23:32N 29°23' W 090°44'7 6.7
2016-Jul-31 22:33N 29°29' W 090°43'6 5.8
2016-Jul-31 21:33N 29°35' W 090°43'4 3.6
2016-Jul-31 20:33N 29°36' W 090°39'5 5.3
2016-Jul-31 19:33N 29°34' W 090°33'6 5.6
2016-Jul-31 18:31N 29°33' W 090°27'24 4.8
2016-Jul-31 13:30N 29°47' W 090°04'4 4.7
2016-Jul-31 12:34N 29°51' W 090°04'3 3.3
2016-Jul-31 11:34N 29°55' W 090°05'2 1.8
2016-Jul-31 10:34N 29°56' W 090°03'0 0.3
2016-Jul-31 09:33N 29°55' W 090°04'0 0.0
2016-Jul-31 08:34N 29°55' W 090°04'0 0.1
2016-Jul-31 07:34N 29°55' W 090°04'0 0.0
2016-Jul-31 06:33N 29°55' W 090°04'0 0.2
2016-Jul-31 05:33N 29°56' W 090°04'0 0.0
2016-Jul-31 04:34N 29°56' W 090°04'1 1.0
2016-Jul-31 03:33N 29°57' W 090°03'4 3.6
2016-Jul-31 02:33N 29°56' W 089°59'0 0.0
2016-Jul-31 01:33N 29°56' W 089°59'0 0.0
2016-Jul-31 00:33N 29°56' W 089°59'3 1.5
2016-Jul-30 22:33N 29°55' W 089°56'0 0.2
2016-Jul-30 21:33N 29°55' W 089°56'6 5.8
2016-Jul-30 20:33N 29°57' W 090°02'2 2.3
2016-Jul-30 19:34N 29°56' W 090°04'0 0.1
2016-Jul-30 18:33N 29°56' W 090°04'0 0.0
2016-Jul-30 17:33N 29°56' W 090°04'0 0.0
2016-Jul-30 16:33N 29°56' W 090°04'0 0.0
2016-Jul-30 15:33N 29°56' W 090°04'0 0.1
2016-Jul-30 14:34N 29°56' W 090°04'0 0.2
2016-Jul-30 13:33N 29°56' W 090°03'  
Track history (hours):
 
Tides and Currents Weather Stations Pressure Air Temp Water Temp Dewpoint Dewpoint Depression Visibility Wind Speed Wind Dir Waves Ship Positions

Jennifer

Owner: John W. Stone Oil Distributor, L.L.C., Gretna, LA. More information available from US FCC via Universal Licensing System and Coast Guard Vessel Documentation Center.

Last reported at 2016-Aug-09 13:31 UTC. Time now 2016-Aug-30 09:10 UTC.
Position N 29°33' W 090°27'.
Warning: this ship's position is 20 days out of date.

Length 17 m; draft 3 m.

Type: Tug. MMSI: 367474690.

Date/timePositionNaut miles runAvg speedWind from/ knotsBaromVisibWave heightAir tempDewpointWater temp
2016-Aug-09 13:31N 29°33' W 090°27'6 6.6
2016-Aug-09 12:34N 29°34' W 090°34'6 5.8
2016-Aug-09 11:33N 29°36' W 090°41'4 3.8
2016-Aug-09 10:33N 29°34' W 090°44'6 5.9
2016-Aug-09 09:33N 29°32' W 090°51'7 6.7
2016-Aug-09 08:33N 29°35' W 090°58'50 4.8
2016-Aug-08 22:09N 29°51' W 091°52'4 6.9
2016-Aug-08 21:33N 29°51' W 091°57'6 6.2
2016-Aug-08 20:34N 29°49' W 092°03'4 4.2
2016-Aug-08 19:33N 29°48' W 092°08'1 1.2
2016-Aug-08 18:33N 29°49' W 092°08'0 0.0
2016-Aug-08 17:33N 29°49' W 092°08'0 0.0
2016-Aug-08 16:33N 29°49' W 092°08'0 0.0
2016-Aug-08 15:33N 29°49' W 092°08'0 0.0
2016-Aug-08 14:33N 29°49' W 092°08'0 0.0
2016-Aug-08 13:33N 29°49' W 092°08'0 0.0
2016-Aug-08 12:33N 29°49' W 092°08'0 0.0
2016-Aug-08 11:34N 29°49' W 092°08'1 0.7
2016-Aug-08 10:33N 29°48' W 092°08'3 3.0
2016-Aug-08 09:33N 29°47' W 092°11'0 0.0
2016-Aug-08 08:33N 29°47' W 092°11'0 0.0
2016-Aug-08 07:33N 29°47' W 092°11'0 0.0
2016-Aug-08 06:33N 29°47' W 092°11'0 0.0
2016-Aug-08 05:34N 29°47' W 092°11'0 0.0
2016-Aug-08 04:33N 29°47' W 092°11'0 0.0
2016-Aug-08 03:34N 29°47' W 092°11'0 0.0
2016-Aug-08 02:33N 29°47' W 092°11'0 0.0
2016-Aug-08 01:34N 29°47' W 092°11'0 0.0
2016-Aug-08 00:34N 29°47' W 092°11'0 0.0
2016-Aug-07 23:34N 29°47' W 092°11'0 0.0
2016-Aug-07 22:33N 29°47' W 092°11'0 0.0
2016-Aug-07 21:34N 29°47' W 092°11'0 0.0
2016-Aug-07 20:33N 29°47' W 092°11'0 0.0
2016-Aug-07 19:34N 29°47' W 092°11'0 0.0
2016-Aug-07 18:33N 29°47' W 092°11'0 0.0
2016-Aug-07 17:33N 29°47' W 092°11'0 0.0
2016-Aug-07 16:33N 29°47' W 092°11'0 0.0
2016-Aug-07 15:33N 29°47' W 092°11'0 0.0
2016-Aug-07 14:33N 29°47' W 092°11'0 0.0
2016-Aug-07 13:33N 29°47' W 092°11'0 0.0
2016-Aug-07 12:33N 29°47' W 092°11'0 0.0
2016-Aug-07 11:33N 29°47' W 092°11'0 0.0
2016-Aug-07 10:33N 29°47' W 092°11'0 0.0
2016-Aug-07 09:34N 29°47' W 092°11'0 0.0
2016-Aug-07 08:33N 29°47' W 092°11'0 0.0
2016-Aug-07 07:33N 29°47' W 092°11'0 0.0
2016-Aug-07 05:34N 29°47' W 092°11'0 0.0
2016-Aug-07 04:33N 29°47' W 092°11'0 0.0
2016-Aug-07 03:31N 29°47' W 092°11'0 0.0
2016-Aug-07 02:34N 29°47' W 092°11'0 0.0
2016-Aug-07 01:33N 29°47' W 092°11'0 0.0
2016-Aug-07 00:33N 29°47' W 092°11'0 0.0
2016-Aug-06 23:33N 29°47' W 092°11'0 0.0
2016-Aug-06 22:33N 29°47' W 092°11'0 0.0
2016-Aug-06 21:33N 29°47' W 092°11'0 0.0
2016-Aug-06 20:33N 29°47' W 092°11'0 0.0
2016-Aug-06 19:33N 29°47' W 092°11'0 0.0
2016-Aug-06 18:33N 29°47' W 092°11'0 0.0
2016-Aug-06 17:33N 29°47' W 092°11'0 0.0
2016-Aug-06 16:33N 29°47' W 092°11'0 0.0
2016-Aug-06 15:33N 29°47' W 092°11'0 0.0
2016-Aug-06 14:33N 29°47' W 092°11'0 0.0
2016-Aug-06 13:33N 29°47' W 092°11'0 0.0
2016-Aug-06 12:33N 29°47' W 092°11'0 0.0
2016-Aug-06 11:34N 29°47' W 092°11'3 2.5
2016-Aug-06 10:33N 29°47' W 092°08'5 5.1
2016-Aug-06 09:33N 29°49' W 092°03'5 5.1
2016-Aug-06 08:33N 29°50' W 091°57'5 4.7
2016-Aug-06 07:33N 29°51' W 091°52'54 4.9
2016-Aug-05 20:29N 29°32' W 090°53'5 5.9
2016-Aug-05 19:33N 29°32' W 090°47'5 4.8
2016-Aug-05 18:33N 29°36' W 090°43'4 3.5
2016-Aug-05 17:33N 29°35' W 090°39'5 5.1
2016-Aug-05 16:33N 29°34' W 090°33'39 1.7
2016-Aug-04 18:08N 29°53' W 089°54'4 6.8
2016-Aug-04 17:34N 29°55' W 089°58'5 4.7
2016-Aug-04 16:34N 29°56' W 090°04'0 0.0
2016-Aug-04 15:33N 29°56' W 090°04'0 0.0
2016-Aug-04 14:34N 29°56' W 090°04'0 0.0
2016-Aug-04 13:33N 29°56' W 090°04'0 0.0
2016-Aug-04 12:33N 29°56' W 090°04'2 1.9
2016-Aug-04 11:34N 29°55' W 090°06'0 0.0
2016-Aug-04 10:33N 29°55' W 090°06'0 0.0
2016-Aug-04 09:33N 29°55' W 090°06'0 0.0
2016-Aug-04 08:33N 29°55' W 090°06'0 0.0
2016-Aug-04 07:33N 29°55' W 090°06'0 0.0
2016-Aug-04 06:33N 29°55' W 090°06'0 0.0
2016-Aug-04 04:33N 29°55' W 090°06'0 0.0
2016-Aug-04 03:33N 29°55' W 090°06'2 2.0
2016-Aug-04 02:34N 29°56' W 090°04'0 0.0
2016-Aug-04 01:33N 29°56' W 090°04'0 0.0
2016-Aug-04 00:34N 29°56' W 090°04'0 0.0
2016-Aug-03 23:33N 29°56' W 090°04'0 0.0
2016-Aug-03 22:33N 29°56' W 090°04'0 0.0
2016-Aug-03 21:33N 29°56' W 090°04'0 0.0
2016-Aug-03 20:33N 29°56' W 090°04'0 0.1
2016-Aug-03 19:33N 29°55' W 090°04'0 0.0
2016-Aug-03 18:33N 29°55' W 090°04'0 0.0
2016-Aug-03 17:33N 29°55' W 090°04'0 0.0
2016-Aug-03 16:34N 29°55' W 090°04'0 0.0
2016-Aug-03 15:33N 29°55' W 090°04'0 0.0
2016-Aug-03 14:33N 29°55' W 090°04'0 0.0
2016-Aug-03 13:34N 29°55' W 090°04'0 0.0
2016-Aug-03 12:34N 29°55' W 090°04'3 2.6
2016-Aug-03 11:34N 29°53' W 090°04'7 6.0
2016-Aug-03 10:24N 29°46' W 090°05'23 5.9
2016-Aug-03 06:33N 29°33' W 090°27'13 6.6
2016-Aug-03 04:33N 29°37' W 090°41'6 5.9
2016-Aug-03 03:34N 29°31' W 090°43'8 7.4
2016-Aug-03 02:32N 29°23' W 090°44'1 0.0
2016-Jul-31 23:32N 29°23' W 090°44'7 6.7
2016-Jul-31 22:33N 29°29' W 090°43'6 5.8
2016-Jul-31 21:33N 29°35' W 090°43'4 3.6
2016-Jul-31 20:33N 29°36' W 090°39'5 5.3
2016-Jul-31 19:33N 29°34' W 090°33'6 5.6
2016-Jul-31 18:31N 29°33' W 090°27'24 4.8
2016-Jul-31 13:30N 29°47' W 090°04'4 4.7
2016-Jul-31 12:34N 29°51' W 090°04'3 3.3
2016-Jul-31 11:34N 29°55' W 090°05'2 1.8
2016-Jul-31 10:34N 29°56' W 090°03'0 0.3
2016-Jul-31 09:33N 29°55' W 090°04'0 0.0
2016-Jul-31 08:34N 29°55' W 090°04'0 0.1
2016-Jul-31 07:34N 29°55' W 090°04'0 0.0
2016-Jul-31 06:33N 29°55' W 090°04'0 0.2
2016-Jul-31 05:33N 29°56' W 090°04'0 0.0
2016-Jul-31 04:34N 29°56' W 090°04'1 1.0
2016-Jul-31 03:33N 29°57' W 090°03'4 3.6
2016-Jul-31 02:33N 29°56' W 089°59'0 0.0
2016-Jul-31 01:33N 29°56' W 089°59'0 0.0
2016-Jul-31 00:33N 29°56' W 089°59'3 1.5
2016-Jul-30 22:33N 29°55' W 089°56'0 0.2
2016-Jul-30 21:33N 29°55' W 089°56'6 5.8
2016-Jul-30 20:33N 29°57' W 090°02'2 2.3
2016-Jul-30 19:34N 29°56' W 090°04'0 0.1
2016-Jul-30 18:33N 29°56' W 090°04'0 0.0
2016-Jul-30 17:33N 29°56' W 090°04'0 0.0
2016-Jul-30 16:33N 29°56' W 090°04'0 0.0
2016-Jul-30 15:33N 29°56' W 090°04'0 0.1
2016-Jul-30 14:34N 29°56' W 090°04'0 0.2
2016-Jul-30 13:33N 29°56' W 090°03'  

Dump ship's entire track history